sensor_id;sensor_type;location;lat;lon;timestamp;temperature;humidity
51661;DHT22;37741;49.748;8.490;2022-12-29T00:02:08;7.50;90.50
51661;DHT22;37741;49.748;8.490;2022-12-29T00:04:34;7.50;90.50
51661;DHT22;37741;49.748;8.490;2022-12-29T00:07:00;7.60;90.50
51661;DHT22;37741;49.748;8.490;2022-12-29T00:09:26;7.60;90.50
51661;DHT22;37741;49.748;8.490;2022-12-29T00:11:52;7.60;90.50
51661;DHT22;37741;49.748;8.490;2022-12-29T00:14:18;7.60;90.60
51661;DHT22;37741;49.748;8.490;2022-12-29T00:17:02;7.60;90.60
51661;DHT22;37741;49.748;8.490;2022-12-29T00:19:28;7.60;90.50
51661;DHT22;37741;49.748;8.490;2022-12-29T00:22:13;7.60;90.70
51661;DHT22;37741;49.748;8.490;2022-12-29T00:24:58;7.60;90.60
51661;DHT22;37741;49.748;8.490;2022-12-29T00:27:31;7.70;90.80
51661;DHT22;37741;49.748;8.490;2022-12-29T00:30:18;7.70;90.90
51661;DHT22;37741;49.748;8.490;2022-12-29T00:33:14;7.70;90.90
51661;DHT22;37741;49.748;8.490;2022-12-29T00:36:05;7.70;91.50
51661;DHT22;37741;49.748;8.490;2022-12-29T00:38:35;7.70;91.30
51661;DHT22;37741;49.748;8.490;2022-12-29T00:41:20;7.80;91.60
51661;DHT22;37741;49.748;8.490;2022-12-29T00:44:04;7.80;91.80
51661;DHT22;37741;49.748;8.490;2022-12-29T00:46:31;7.80;91.80
51661;DHT22;37741;49.748;8.490;2022-12-29T00:48:58;7.80;91.80
51661;DHT22;37741;49.748;8.490;2022-12-29T00:51:42;7.90;91.90
51661;DHT22;37741;49.748;8.490;2022-12-29T00:54:08;7.90;92.00
51661;DHT22;37741;49.748;8.490;2022-12-29T00:56:34;7.90;91.80
51661;DHT22;37741;49.748;8.490;2022-12-29T00:59:03;7.90;91.80
51661;DHT22;37741;49.748;8.490;2022-12-29T01:01:29;7.90;91.80
51661;DHT22;37741;49.748;8.490;2022-12-29T01:03:55;8.00;92.00
51661;DHT22;37741;49.748;8.490;2022-12-29T01:06:20;8.00;92.10
51661;DHT22;37741;49.748;8.490;2022-12-29T01:08:46;8.00;91.90
51661;DHT22;37741;49.748;8.490;2022-12-29T01:11:12;8.00;92.00
51661;DHT22;37741;49.748;8.490;2022-12-29T01:13:38;8.00;92.10
51661;DHT22;37741;49.748;8.490;2022-12-29T01:16:06;8.00;92.00
51661;DHT22;37741;49.748;8.490;2022-12-29T01:18:32;8.00;92.10
51661;DHT22;37741;49.748;8.490;2022-12-29T01:21:03;8.10;92.10
51661;DHT22;37741;49.748;8.490;2022-12-29T01:23:29;8.10;92.10
51661;DHT22;37741;49.748;8.490;2022-12-29T01:25:55;8.10;91.90
51661;DHT22;37741;49.748;8.490;2022-12-29T01:28:21;8.10;91.90
51661;DHT22;37741;49.748;8.490;2022-12-29T01:30:47;8.10;92.10
51661;DHT22;37741;49.748;8.490;2022-12-29T01:33:12;8.20;92.00
51661;DHT22;37741;49.748;8.490;2022-12-29T01:35:38;8.20;92.00
51661;DHT22;37741;49.748;8.490;2022-12-29T01:38:04;8.20;91.90
51661;DHT22;37741;49.748;8.490;2022-12-29T01:40:29;8.20;91.90
51661;DHT22;37741;49.748;8.490;2022-12-29T01:42:55;8.20;91.90
51661;DHT22;37741;49.748;8.490;2022-12-29T01:45:21;8.20;92.00
51661;DHT22;37741;49.748;8.490;2022-12-29T01:50:32;8.30;92.20
51661;DHT22;37741;49.748;8.490;2022-12-29T01:53:04;8.30;92.00
51661;DHT22;37741;49.748;8.490;2022-12-29T01:55:36;8.30;91.90
51661;DHT22;37741;49.748;8.490;2022-12-29T01:58:05;8.40;92.00
51661;DHT22;37741;49.748;8.490;2022-12-29T02:00:31;8.30;92.00
51661;DHT22;37741;49.748;8.490;2022-12-29T02:02:57;8.40;92.00
51661;DHT22;37741;49.748;8.490;2022-12-29T02:08:11;8.40;92.30
51661;DHT22;37741;49.748;8.490;2022-12-29T02:10:39;8.40;92.00
51661;DHT22;37741;49.748;8.490;2022-12-29T02:13:06;8.40;91.90
51661;DHT22;37741;49.748;8.490;2022-12-29T02:43:31;8.50;91.80
51661;DHT22;37741;49.748;8.490;2022-12-29T02:49:08;8.60;91.80
51661;DHT22;37741;49.748;8.490;2022-12-29T02:51:46;8.60;91.90
51661;DHT22;37741;49.748;8.490;2022-12-29T02:54:17;8.60;91.80
51661;DHT22;37741;49.748;8.490;2022-12-29T02:57:02;8.60;91.90
51661;DHT22;37741;49.748;8.490;2022-12-29T02:59:27;8.60;91.90
51661;DHT22;37741;49.748;8.490;2022-12-29T03:13:23;8.70;91.80
51661;DHT22;37741;49.748;8.490;2022-12-29T03:18:51;8.70;91.60
51661;DHT22;37741;49.748;8.490;2022-12-29T03:21:39;8.70;91.90
51661;DHT22;37741;49.748;8.490;2022-12-29T03:24:28;8.70;91.80
51661;DHT22;37741;49.748;8.490;2022-12-29T03:26:58;8.80;91.70
51661;DHT22;37741;49.748;8.490;2022-12-29T03:29:25;8.70;91.70
51661;DHT22;37741;49.748;8.490;2022-12-29T03:31:53;8.70;91.80
51661;DHT22;37741;49.748;8.490;2022-12-29T03:34:20;8.80;91.70
51661;DHT22;37741;49.748;8.490;2022-12-29T03:37:03;8.80;91.60
51661;DHT22;37741;49.748;8.490;2022-12-29T03:39:30;8.80;91.60
51661;DHT22;37741;49.748;8.490;2022-12-29T03:42:01;8.80;91.60
51661;DHT22;37741;49.748;8.490;2022-12-29T03:44:33;8.80;91.50
51661;DHT22;37741;49.748;8.490;2022-12-29T03:47:00;8.80;91.50
51661;DHT22;37741;49.748;8.490;2022-12-29T03:49:25;8.90;91.50
51661;DHT22;37741;49.748;8.490;2022-12-29T03:51:51;8.80;91.40
51661;DHT22;37741;49.748;8.490;2022-12-29T03:54:16;8.80;91.30
51661;DHT22;37741;49.748;8.490;2022-12-29T03:56:42;8.80;91.20
51661;DHT22;37741;49.748;8.490;2022-12-29T03:59:08;8.80;91.30
51661;DHT22;37741;49.748;8.490;2022-12-29T04:01:34;8.90;91.30
51661;DHT22;37741;49.748;8.490;2022-12-29T04:03:59;8.80;91.20
51661;DHT22;37741;49.748;8.490;2022-12-29T04:06:25;8.90;91.20
51661;DHT22;37741;49.748;8.490;2022-12-29T04:08:50;8.90;91.10
51661;DHT22;37741;49.748;8.490;2022-12-29T04:11:16;8.90;91.10
51661;DHT22;37741;49.748;8.490;2022-12-29T04:13:42;8.90;91.10
51661;DHT22;37741;49.748;8.490;2022-12-29T04:16:07;8.90;91.10
51661;DHT22;37741;49.748;8.490;2022-12-29T04:18:33;8.90;91.10
51661;DHT22;37741;49.748;8.490;2022-12-29T04:20:59;8.90;91.10
51661;DHT22;37741;49.748;8.490;2022-12-29T04:23:25;8.90;91.10
51661;DHT22;37741;49.748;8.490;2022-12-29T04:25:50;8.90;91.00
51661;DHT22;37741;49.748;8.490;2022-12-29T04:28:16;8.90;91.00
51661;DHT22;37741;49.748;8.490;2022-12-29T04:30:43;8.90;91.00
51661;DHT22;37741;49.748;8.490;2022-12-29T04:33:09;8.90;90.90
51661;DHT22;37741;49.748;8.490;2022-12-29T04:35:34;9.00;90.90
51661;DHT22;37741;49.748;8.490;2022-12-29T04:40:41;8.90;90.90
51661;DHT22;37741;49.748;8.490;2022-12-29T04:43:08;8.90;90.80
51661;DHT22;37741;49.748;8.490;2022-12-29T04:45:34;8.90;90.90
51661;DHT22;37741;49.748;8.490;2022-12-29T04:47:59;9.00;90.90
51661;DHT22;37741;49.748;8.490;2022-12-29T04:50:25;9.00;90.90
51661;DHT22;37741;49.748;8.490;2022-12-29T04:52:51;9.00;90.90
51661;DHT22;37741;49.748;8.490;2022-12-29T04:55:16;9.00;90.90
51661;DHT22;37741;49.748;8.490;2022-12-29T04:57:42;9.00;90.80
51661;DHT22;37741;49.748;8.490;2022-12-29T05:00:08;9.00;90.90
51661;DHT22;37741;49.748;8.490;2022-12-29T05:02:35;9.00;90.90
51661;DHT22;37741;49.748;8.490;2022-12-29T05:05:01;9.00;90.90
51661;DHT22;37741;49.748;8.490;2022-12-29T05:07:26;9.00;90.80
51661;DHT22;37741;49.748;8.490;2022-12-29T05:09:52;9.00;90.80
51661;DHT22;37741;49.748;8.490;2022-12-29T05:12:17;9.10;90.90
51661;DHT22;37741;49.748;8.490;2022-12-29T05:14:43;9.10;90.90
51661;DHT22;37741;49.748;8.490;2022-12-29T05:17:09;9.10;90.80
51661;DHT22;37741;49.748;8.490;2022-12-29T05:19:34;9.10;90.90
51661;DHT22;37741;49.748;8.490;2022-12-29T05:22:00;9.10;90.80
51661;DHT22;37741;49.748;8.490;2022-12-29T05:24:25;9.10;90.80
51661;DHT22;37741;49.748;8.490;2022-12-29T05:26:51;9.10;90.80
51661;DHT22;37741;49.748;8.490;2022-12-29T05:29:17;9.10;90.80
51661;DHT22;37741;49.748;8.490;2022-12-29T05:31:42;9.10;90.80
51661;DHT22;37741;49.748;8.490;2022-12-29T05:34:10;9.20;90.80
51661;DHT22;37741;49.748;8.490;2022-12-29T05:36:36;9.20;90.80
51661;DHT22;37741;49.748;8.490;2022-12-29T05:39:02;9.20;90.70
51661;DHT22;37741;49.748;8.490;2022-12-29T05:41:28;9.20;90.80
51661;DHT22;37741;49.748;8.490;2022-12-29T05:43:53;9.20;90.70
51661;DHT22;37741;49.748;8.490;2022-12-29T05:46:19;9.20;90.70
51661;DHT22;37741;49.748;8.490;2022-12-29T05:48:45;9.20;90.70
51661;DHT22;37741;49.748;8.490;2022-12-29T05:51:10;9.20;90.70
51661;DHT22;37741;49.748;8.490;2022-12-29T05:53:36;9.20;90.60
51661;DHT22;37741;49.748;8.490;2022-12-29T05:56:02;9.20;90.60
51661;DHT22;37741;49.748;8.490;2022-12-29T05:58:27;9.30;90.60
51661;DHT22;37741;49.748;8.490;2022-12-29T06:00:53;9.30;90.60
51661;DHT22;37741;49.748;8.490;2022-12-29T06:03:18;9.30;90.60
51661;DHT22;37741;49.748;8.490;2022-12-29T06:05:45;9.30;90.60
51661;DHT22;37741;49.748;8.490;2022-12-29T06:08:11;9.30;90.60
51661;DHT22;37741;49.748;8.490;2022-12-29T06:10:37;9.30;90.50
51661;DHT22;37741;49.748;8.490;2022-12-29T06:13:03;9.30;90.50
51661;DHT22;37741;49.748;8.490;2022-12-29T06:15:33;9.30;90.50
51661;DHT22;37741;49.748;8.490;2022-12-29T06:17:59;9.40;90.50
51661;DHT22;37741;49.748;8.490;2022-12-29T06:20:24;9.30;90.40
51661;DHT22;37741;49.748;8.490;2022-12-29T06:22:50;9.40;90.50
51661;DHT22;37741;49.748;8.490;2022-12-29T06:25:15;9.30;90.50
51661;DHT22;37741;49.748;8.490;2022-12-29T06:27:41;9.40;90.40
51661;DHT22;37741;49.748;8.490;2022-12-29T06:30:08;9.40;90.40
51661;DHT22;37741;49.748;8.490;2022-12-29T06:32:34;9.40;90.30
51661;DHT22;37741;49.748;8.490;2022-12-29T06:35:00;9.40;90.30
51661;DHT22;37741;49.748;8.490;2022-12-29T06:37:26;9.40;90.30
51661;DHT22;37741;49.748;8.490;2022-12-29T06:39:51;9.40;90.30
51661;DHT22;37741;49.748;8.490;2022-12-29T06:42:17;9.40;90.20
51661;DHT22;37741;49.748;8.490;2022-12-29T06:44:43;9.40;90.20
51661;DHT22;37741;49.748;8.490;2022-12-29T06:47:08;9.50;90.20
51661;DHT22;37741;49.748;8.490;2022-12-29T06:49:34;9.40;90.20
51661;DHT22;37741;49.748;8.490;2022-12-29T06:51:59;9.50;90.30
51661;DHT22;37741;49.748;8.490;2022-12-29T06:54:26;9.40;90.20
51661;DHT22;37741;49.748;8.490;2022-12-29T06:56:51;9.40;90.20
51661;DHT22;37741;49.748;8.490;2022-12-29T06:59:17;9.40;90.20
51661;DHT22;37741;49.748;8.490;2022-12-29T07:01:43;9.50;90.20
51661;DHT22;37741;49.748;8.490;2022-12-29T07:04:08;9.50;90.10
51661;DHT22;37741;49.748;8.490;2022-12-29T07:06:34;9.50;90.10
51661;DHT22;37741;49.748;8.490;2022-12-29T07:08:59;9.50;90.10
51661;DHT22;37741;49.748;8.490;2022-12-29T07:11:25;9.50;90.10
51661;DHT22;37741;49.748;8.490;2022-12-29T07:13:51;9.50;90.00
51661;DHT22;37741;49.748;8.490;2022-12-29T07:16:16;9.50;90.10
51661;DHT22;37741;49.748;8.490;2022-12-29T07:18:42;9.50;90.30
51661;DHT22;37741;49.748;8.490;2022-12-29T07:21:08;9.50;90.50
51661;DHT22;37741;49.748;8.490;2022-12-29T07:23:33;9.50;90.40
51661;DHT22;37741;49.748;8.490;2022-12-29T07:26:05;9.50;90.40
51661;DHT22;37741;49.748;8.490;2022-12-29T07:28:31;9.50;90.40
51661;DHT22;37741;49.748;8.490;2022-12-29T07:30:58;9.50;90.60
51661;DHT22;37741;49.748;8.490;2022-12-29T07:33:24;9.50;90.30
51661;DHT22;37741;49.748;8.490;2022-12-29T07:35:50;9.50;90.20
51661;DHT22;37741;49.748;8.490;2022-12-29T07:38:16;9.60;90.20
51661;DHT22;37741;49.748;8.490;2022-12-29T07:40:42;9.60;90.10
51661;DHT22;37741;49.748;8.490;2022-12-29T07:43:08;9.60;90.10
51661;DHT22;37741;49.748;8.490;2022-12-29T07:45:33;9.60;90.00
51661;DHT22;37741;49.748;8.490;2022-12-29T07:47:59;9.60;90.10
51661;DHT22;37741;49.748;8.490;2022-12-29T07:50:24;9.60;90.20
51661;DHT22;37741;49.748;8.490;2022-12-29T07:52:50;9.60;90.10
51661;DHT22;37741;49.748;8.490;2022-12-29T07:55:16;9.60;90.10
51661;DHT22;37741;49.748;8.490;2022-12-29T07:57:42;9.60;90.10
51661;DHT22;37741;49.748;8.490;2022-12-29T08:00:08;9.60;90.20
51661;DHT22;37741;49.748;8.490;2022-12-29T08:02:35;9.60;90.20
51661;DHT22;37741;49.748;8.490;2022-12-29T08:05:01;9.60;90.20
51661;DHT22;37741;49.748;8.490;2022-12-29T08:07:26;9.60;90.20
51661;DHT22;37741;49.748;8.490;2022-12-29T08:09:52;9.60;90.20
51661;DHT22;37741;49.748;8.490;2022-12-29T08:12:17;9.60;90.20
51661;DHT22;37741;49.748;8.490;2022-12-29T08:14:43;9.60;90.10
51661;DHT22;37741;49.748;8.490;2022-12-29T08:17:09;9.70;90.10
51661;DHT22;37741;49.748;8.490;2022-12-29T08:19:35;9.60;90.00
51661;DHT22;37741;49.748;8.490;2022-12-29T08:22:01;9.60;90.00
51661;DHT22;37741;49.748;8.490;2022-12-29T08:24:27;9.60;90.10
51661;DHT22;37741;49.748;8.490;2022-12-29T08:26:52;9.70;90.00
51661;DHT22;37741;49.748;8.490;2022-12-29T08:29:18;9.60;90.00
51661;DHT22;37741;49.748;8.490;2022-12-29T08:31:44;9.70;90.30
51661;DHT22;37741;49.748;8.490;2022-12-29T08:34:10;9.70;90.00
51661;DHT22;37741;49.748;8.490;2022-12-29T08:36:36;9.70;90.00
51661;DHT22;37741;49.748;8.490;2022-12-29T08:39:02;9.70;89.70
51661;DHT22;37741;49.748;8.490;2022-12-29T08:41:27;9.70;89.70
51661;DHT22;37741;49.748;8.490;2022-12-29T08:43:53;9.70;89.80
51661;DHT22;37741;49.748;8.490;2022-12-29T08:46:19;9.70;89.60
51661;DHT22;37741;49.748;8.490;2022-12-29T08:48:45;9.70;89.50
51661;DHT22;37741;49.748;8.490;2022-12-29T08:51:11;9.70;89.40
51661;DHT22;37741;49.748;8.490;2022-12-29T08:53:36;9.80;89.70
51661;DHT22;37741;49.748;8.490;2022-12-29T08:56:02;9.80;89.30
51661;DHT22;37741;49.748;8.490;2022-12-29T08:58:28;9.80;89.40
51661;DHT22;37741;49.748;8.490;2022-12-29T09:00:55;9.80;89.30
51661;DHT22;37741;49.748;8.490;2022-12-29T09:03:21;9.80;89.30
51661;DHT22;37741;49.748;8.490;2022-12-29T09:05:51;9.80;89.30
51661;DHT22;37741;49.748;8.490;2022-12-29T09:08:17;9.80;89.30
51661;DHT22;37741;49.748;8.490;2022-12-29T09:10:43;9.90;89.20
51661;DHT22;37741;49.748;8.490;2022-12-29T09:13:10;9.90;89.20
51661;DHT22;37741;49.748;8.490;2022-12-29T09:15:35;9.80;89.20
51661;DHT22;37741;49.748;8.490;2022-12-29T09:18:01;9.90;89.10
51661;DHT22;37741;49.748;8.490;2022-12-29T09:20:27;9.90;89.20
51661;DHT22;37741;49.748;8.490;2022-12-29T09:22:52;9.90;89.20
51661;DHT22;37741;49.748;8.490;2022-12-29T09:25:19;9.90;89.10
51661;DHT22;37741;49.748;8.490;2022-12-29T09:27:45;9.90;89.20
51661;DHT22;37741;49.748;8.490;2022-12-29T09:30:15;10.00;88.90
51661;DHT22;37741;49.748;8.490;2022-12-29T09:32:40;10.00;89.00
51661;DHT22;37741;49.748;8.490;2022-12-29T09:35:06;10.00;89.00
51661;DHT22;37741;49.748;8.490;2022-12-29T09:37:32;10.00;89.10
51661;DHT22;37741;49.748;8.490;2022-12-29T09:39:58;10.00;89.10
51661;DHT22;37741;49.748;8.490;2022-12-29T09:42:38;10.00;89.10
51661;DHT22;37741;49.748;8.490;2022-12-29T09:45:14;10.00;89.10
51661;DHT22;37741;49.748;8.490;2022-12-29T09:47:42;10.10;89.30
51661;DHT22;37741;49.748;8.490;2022-12-29T09:50:24;10.00;89.20
51661;DHT22;37741;49.748;8.490;2022-12-29T09:53:12;10.10;89.30
51661;DHT22;37741;49.748;8.490;2022-12-29T09:55:48;10.10;89.10
51661;DHT22;37741;49.748;8.490;2022-12-29T10:03:48;10.20;89.00
51661;DHT22;37741;49.748;8.490;2022-12-29T10:06:20;10.20;89.00
51661;DHT22;37741;49.748;8.490;2022-12-29T10:08:49;10.20;89.00
51661;DHT22;37741;49.748;8.490;2022-12-29T10:14:38;10.20;89.00
51661;DHT22;37741;49.748;8.490;2022-12-29T10:17:27;10.20;89.10
51661;DHT22;37741;49.748;8.490;2022-12-29T10:25:24;10.30;89.00
51661;DHT22;37741;49.748;8.490;2022-12-29T10:27:53;10.30;88.80
51661;DHT22;37741;49.748;8.490;2022-12-29T10:30:20;10.30;88.80
51661;DHT22;37741;49.748;8.490;2022-12-29T10:32:56;10.30;89.60
51661;DHT22;37741;49.748;8.490;2022-12-29T10:35:26;10.30;89.90
51661;DHT22;37741;49.748;8.490;2022-12-29T10:41:18;10.30;90.30
51661;DHT22;37741;49.748;8.490;2022-12-29T10:43:47;10.30;90.60
51661;DHT22;37741;49.748;8.490;2022-12-29T10:46:18;10.30;90.80
51661;DHT22;37741;49.748;8.490;2022-12-29T10:48:45;10.30;90.70
51661;DHT22;37741;49.748;8.490;2022-12-29T10:51:23;10.30;90.70
51661;DHT22;37741;49.748;8.490;2022-12-29T10:54:23;10.30;90.70
51661;DHT22;37741;49.748;8.490;2022-12-29T10:57:03;10.30;90.80
51661;DHT22;37741;49.748;8.490;2022-12-29T10:59:33;10.20;90.80
51661;DHT22;37741;49.748;8.490;2022-12-29T11:07:04;10.20;91.00
51661;DHT22;37741;49.748;8.490;2022-12-29T11:09:34;10.30;91.00
51661;DHT22;37741;49.748;8.490;2022-12-29T11:12:00;10.20;91.10
51661;DHT22;37741;49.748;8.490;2022-12-29T11:14:31;10.20;91.00
51661;DHT22;37741;49.748;8.490;2022-12-29T11:17:03;10.20;90.90
51661;DHT22;37741;49.748;8.490;2022-12-29T11:19:31;10.20;91.00
51661;DHT22;37741;49.748;8.490;2022-12-29T11:22:13;10.20;91.10
51661;DHT22;37741;49.748;8.490;2022-12-29T11:24:51;10.20;91.10
51661;DHT22;37741;49.748;8.490;2022-12-29T11:27:21;10.20;91.00
51661;DHT22;37741;49.748;8.490;2022-12-29T11:29:49;10.20;91.10
51661;DHT22;37741;49.748;8.490;2022-12-29T11:32:24;10.30;91.20
51661;DHT22;37741;49.748;8.490;2022-12-29T11:34:50;10.20;91.20
51661;DHT22;37741;49.748;8.490;2022-12-29T11:37:39;10.20;91.20
51661;DHT22;37741;49.748;8.490;2022-12-29T11:40:14;10.20;91.20
51661;DHT22;37741;49.748;8.490;2022-12-29T11:45:35;10.30;91.40
51661;DHT22;37741;49.748;8.490;2022-12-29T11:48:18;10.30;91.30
51661;DHT22;37741;49.748;8.490;2022-12-29T11:50:56;10.30;91.40
51661;DHT22;37741;49.748;8.490;2022-12-29T11:55:57;10.30;91.30
51661;DHT22;37741;49.748;8.490;2022-12-29T11:58:32;10.30;91.40
51661;DHT22;37741;49.748;8.490;2022-12-29T12:01:17;10.30;91.30
51661;DHT22;37741;49.748;8.490;2022-12-29T12:03:56;10.30;91.30
51661;DHT22;37741;49.748;8.490;2022-12-29T12:06:23;10.30;91.20
51661;DHT22;37741;49.748;8.490;2022-12-29T12:09:04;10.30;91.10
51661;DHT22;37741;49.748;8.490;2022-12-29T12:11:37;10.30;91.10
51661;DHT22;37741;49.748;8.490;2022-12-29T12:14:19;10.30;91.00
51661;DHT22;37741;49.748;8.490;2022-12-29T12:16:55;10.30;91.00
51661;DHT22;37741;49.748;8.490;2022-12-29T12:19:36;10.30;91.00
51661;DHT22;37741;49.748;8.490;2022-12-29T12:28:00;10.30;91.00
51661;DHT22;37741;49.748;8.490;2022-12-29T12:30:36;10.30;91.00
51661;DHT22;37741;49.748;8.490;2022-12-29T12:38:56;10.30;91.00
51661;DHT22;37741;49.748;8.490;2022-12-29T13:01:34;10.30;90.80
51661;DHT22;37741;49.748;8.490;2022-12-29T13:18:04;10.40;90.50
51661;DHT22;37741;49.748;8.490;2022-12-29T13:23:54;10.40;90.40
51661;DHT22;37741;49.748;8.490;2022-12-29T13:26:34;10.40;90.30
51661;DHT22;37741;49.748;8.490;2022-12-29T13:29:21;10.40;90.30
51661;DHT22;37741;49.748;8.490;2022-12-29T13:32:02;10.40;90.20
51661;DHT22;37741;49.748;8.490;2022-12-29T13:37:16;10.40;90.00
51661;DHT22;37741;49.748;8.490;2022-12-29T13:39:57;10.40;90.10
51661;DHT22;37741;49.748;8.490;2022-12-29T13:42:23;10.40;90.00
51661;DHT22;37741;49.748;8.490;2022-12-29T13:45:36;10.40;89.80
51661;DHT22;37741;49.748;8.490;2022-12-29T13:47:47;10.40;89.90
51661;DHT22;37741;49.748;8.490;2022-12-29T13:50:22;10.40;89.80
51661;DHT22;37741;49.748;8.490;2022-12-29T13:55:58;10.50;89.80
51661;DHT22;37741;49.748;8.490;2022-12-29T13:58:47;10.50;89.60
51661;DHT22;37741;49.748;8.490;2022-12-29T14:01:39;10.50;89.30
51661;DHT22;37741;49.748;8.490;2022-12-29T14:04:26;10.50;89.10
51661;DHT22;37741;49.748;8.490;2022-12-29T14:07:24;10.50;89.30
51661;DHT22;37741;49.748;8.490;2022-12-29T14:09:52;10.50;88.70
51661;DHT22;37741;49.748;8.490;2022-12-29T14:12:31;10.50;89.00
51661;DHT22;37741;49.748;8.490;2022-12-29T14:17:37;10.40;88.60
51661;DHT22;37741;49.748;8.490;2022-12-29T14:20:05;10.50;88.70
51661;DHT22;37741;49.748;8.490;2022-12-29T14:22:33;10.50;88.60
51661;DHT22;37741;49.748;8.490;2022-12-29T14:24:59;10.50;88.50
51661;DHT22;37741;49.748;8.490;2022-12-29T14:29:53;10.40;88.50
51661;DHT22;37741;49.748;8.490;2022-12-29T14:40:25;10.50;89.10
51661;DHT22;37741;49.748;8.490;2022-12-29T14:42:54;10.40;88.10
51661;DHT22;37741;49.748;8.490;2022-12-29T14:47:50;10.50;88.30
51661;DHT22;37741;49.748;8.490;2022-12-29T14:50:25;10.50;88.60
51661;DHT22;37741;49.748;8.490;2022-12-29T14:52:59;10.50;88.10
51661;DHT22;37741;49.748;8.490;2022-12-29T14:55:38;10.40;87.90
51661;DHT22;37741;49.748;8.490;2022-12-29T14:58:12;10.50;88.00
51661;DHT22;37741;49.748;8.490;2022-12-29T15:00:39;10.40;88.00
51661;DHT22;37741;49.748;8.490;2022-12-29T15:03:12;10.50;88.20
51661;DHT22;37741;49.748;8.490;2022-12-29T15:05:48;10.40;88.50
51661;DHT22;37741;49.748;8.490;2022-12-29T15:08:18;10.50;88.00
51661;DHT22;37741;49.748;8.490;2022-12-29T15:10:56;10.40;87.50
51661;DHT22;37741;49.748;8.490;2022-12-29T15:13:33;10.40;88.00
51661;DHT22;37741;49.748;8.490;2022-12-29T15:15:59;10.40;87.80
51661;DHT22;37741;49.748;8.490;2022-12-29T15:18:32;10.40;88.10
51661;DHT22;37741;49.748;8.490;2022-12-29T15:21:05;10.40;88.50
51661;DHT22;37741;49.748;8.490;2022-12-29T15:23:33;10.40;88.20
51661;DHT22;37741;49.748;8.490;2022-12-29T15:26:04;10.40;88.10
51661;DHT22;37741;49.748;8.490;2022-12-29T15:28:42;10.40;88.60
51661;DHT22;37741;49.748;8.490;2022-12-29T15:31:16;10.40;88.40
51661;DHT22;37741;49.748;8.490;2022-12-29T15:33:44;10.40;88.40
51661;DHT22;37741;49.748;8.490;2022-12-29T15:36:17;10.30;88.70
51661;DHT22;37741;49.748;8.490;2022-12-29T15:38:44;10.30;88.50
51661;DHT22;37741;49.748;8.490;2022-12-29T15:41:35;10.30;88.60
51661;DHT22;37741;49.748;8.490;2022-12-29T15:44:42;10.30;88.70
51661;DHT22;37741;49.748;8.490;2022-12-29T15:47:29;10.30;88.70
51661;DHT22;37741;49.748;8.490;2022-12-29T15:50:15;10.30;88.60
51661;DHT22;37741;49.748;8.490;2022-12-29T15:52:42;10.30;88.90
51661;DHT22;37741;49.748;8.490;2022-12-29T15:55:26;10.20;88.70
51661;DHT22;37741;49.748;8.490;2022-12-29T15:57:56;10.20;88.80
51661;DHT22;37741;49.748;8.490;2022-12-29T16:00:28;10.20;88.80
51661;DHT22;37741;49.748;8.490;2022-12-29T16:02:55;10.20;88.90
51661;DHT22;37741;49.748;8.490;2022-12-29T16:05:22;10.20;89.00
51661;DHT22;37741;49.748;8.490;2022-12-29T16:07:56;10.10;89.30
51661;DHT22;37741;49.748;8.490;2022-12-29T16:10:32;10.20;89.40
51661;DHT22;37741;49.748;8.490;2022-12-29T16:15:47;10.10;89.00
51661;DHT22;37741;49.748;8.490;2022-12-29T16:18:35;10.10;89.80
51661;DHT22;37741;49.748;8.490;2022-12-29T16:21:03;10.10;89.30
51661;DHT22;37741;49.748;8.490;2022-12-29T16:23:30;10.10;89.70
51661;DHT22;37741;49.748;8.490;2022-12-29T16:25:56;10.10;89.70
51661;DHT22;37741;49.748;8.490;2022-12-29T16:28:37;10.00;89.50
51661;DHT22;37741;49.748;8.490;2022-12-29T16:31:06;10.00;89.70
51661;DHT22;37741;49.748;8.490;2022-12-29T16:33:45;10.00;89.30
51661;DHT22;37741;49.748;8.490;2022-12-29T16:36:51;10.00;90.00
51661;DHT22;37741;49.748;8.490;2022-12-29T16:39:21;10.00;89.90
51661;DHT22;37741;49.748;8.490;2022-12-29T16:41:49;10.00;90.20
51661;DHT22;37741;49.748;8.490;2022-12-29T16:44:30;9.90;90.00
51661;DHT22;37741;49.748;8.490;2022-12-29T16:47:03;9.90;89.80
51661;DHT22;37741;49.748;8.490;2022-12-29T16:49:32;9.90;90.00
51661;DHT22;37741;49.748;8.490;2022-12-29T16:51:58;9.90;90.10
51661;DHT22;37741;49.748;8.490;2022-12-29T16:54:48;9.90;90.00
51661;DHT22;37741;49.748;8.490;2022-12-29T16:57:21;9.90;90.10
51661;DHT22;37741;49.748;8.490;2022-12-29T16:59:50;9.90;90.10
51661;DHT22;37741;49.748;8.490;2022-12-29T17:02:20;9.80;90.00
51661;DHT22;37741;49.748;8.490;2022-12-29T17:04:47;9.80;89.60
51661;DHT22;37741;49.748;8.490;2022-12-29T17:07:20;9.80;89.30
51661;DHT22;37741;49.748;8.490;2022-12-29T17:09:46;9.80;89.10
51661;DHT22;37741;49.748;8.490;2022-12-29T17:12:18;9.80;89.10
51661;DHT22;37741;49.748;8.490;2022-12-29T17:15:11;9.80;89.20
51661;DHT22;37741;49.748;8.490;2022-12-29T17:17:45;9.80;89.50
51661;DHT22;37741;49.748;8.490;2022-12-29T17:20:16;9.80;89.20
51661;DHT22;37741;49.748;8.490;2022-12-29T17:22:42;9.80;89.40
51661;DHT22;37741;49.748;8.490;2022-12-29T17:25:15;9.80;89.20
51661;DHT22;37741;49.748;8.490;2022-12-29T17:27:48;9.80;89.00
51661;DHT22;37741;49.748;8.490;2022-12-29T17:30:17;9.70;89.50
51661;DHT22;37741;49.748;8.490;2022-12-29T17:32:57;9.70;89.30
51661;DHT22;37741;49.748;8.490;2022-12-29T17:35:23;9.70;88.80
51661;DHT22;37741;49.748;8.490;2022-12-29T17:37:49;9.70;89.40
51661;DHT22;37741;49.748;8.490;2022-12-29T17:40:18;9.70;89.70
51661;DHT22;37741;49.748;8.490;2022-12-29T17:42:52;9.70;89.40
51661;DHT22;37741;49.748;8.490;2022-12-29T17:45:31;9.70;89.30
51661;DHT22;37741;49.748;8.490;2022-12-29T17:47:57;9.70;89.50
51661;DHT22;37741;49.748;8.490;2022-12-29T17:50:27;9.70;89.60
51661;DHT22;37741;49.748;8.490;2022-12-29T17:53:02;9.60;89.60
51661;DHT22;37741;49.748;8.490;2022-12-29T17:55:28;9.70;89.30
51661;DHT22;37741;49.748;8.490;2022-12-29T17:57:54;9.60;89.60
51661;DHT22;37741;49.748;8.490;2022-12-29T18:00:25;9.60;90.00
51661;DHT22;37741;49.748;8.490;2022-12-29T18:02:53;9.60;90.10
51661;DHT22;37741;49.748;8.490;2022-12-29T18:05:37;9.60;90.10
51661;DHT22;37741;49.748;8.490;2022-12-29T18:08:02;9.60;90.00
51661;DHT22;37741;49.748;8.490;2022-12-29T18:10:29;9.60;90.00
51661;DHT22;37741;49.748;8.490;2022-12-29T18:12:58;9.60;90.20
51661;DHT22;37741;49.748;8.490;2022-12-29T18:15:31;9.50;90.00
51661;DHT22;37741;49.748;8.490;2022-12-29T18:18:12;9.50;90.10
51661;DHT22;37741;49.748;8.490;2022-12-29T18:20:39;9.50;90.00
51661;DHT22;37741;49.748;8.490;2022-12-29T18:23:08;9.50;89.90
51661;DHT22;37741;49.748;8.490;2022-12-29T18:28:23;9.50;90.10
51661;DHT22;37741;49.748;8.490;2022-12-29T18:30:49;9.50;90.50
51661;DHT22;37741;49.748;8.490;2022-12-29T18:33:17;9.50;90.10
51661;DHT22;37741;49.748;8.490;2022-12-29T18:35:55;9.50;90.20
51661;DHT22;37741;49.748;8.490;2022-12-29T18:38:21;9.50;90.20